Time;durP1;ratioP1;P1;durP2;ratioP2;P2;SDS_P1;SDS_P2;PMS_P1;PMS_P2;Temp;Humidity;BMP_temperature;BMP_pressure;BME280_temperature;BME280_humidity;BME280_pressure;Samples;Min_cycle;Max_cycle;Signal;HPM_P1;HPM_P2
2024/01/21 00:02:16;;;;;;;22.52;11.88;;;1.00;99.90;;;;;;5054318;28;20043;-74
2024/01/21 00:04:42;;;;;;;17.48;10.45;;;1.00;99.90;;;;;;5062725;28;20025;-75
2024/01/21 00:07:07;;;;;;;19.30;11.18;;;1.00;99.90;;;;;;5054673;28;20021;-74
2024/01/21 00:09:33;;;;;;;21.08;11.15;;;1.10;99.90;;;;;;5069231;28;20507;-74
2024/01/21 00:11:59;;;;;;;22.17;11.82;;;1.10;99.90;;;;;;5059689;28;20507;-74
2024/01/21 00:14:24;;;;;;;18.02;10.23;;;1.10;99.90;;;;;;5052935;28;20036;-74
2024/01/21 00:16:50;;;;;;;19.20;10.93;;;1.10;99.90;;;;;;5052853;28;20519;-74
2024/01/21 00:19:16;;;;;;;21.58;10.75;;;1.10;99.90;;;;;;5059342;28;20052;-75
2024/01/21 00:21:41;;;;;;;21.08;10.77;;;1.00;99.90;;;;;;5070863;28;20030;-75
2024/01/21 00:24:07;;;;;;;21.02;10.70;;;1.00;99.90;;;;;;5068391;28;20127;-75
2024/01/21 00:26:33;;;;;;;20.00;10.57;;;1.00;99.90;;;;;;5064199;28;20017;-75
2024/01/21 00:29:00;;;;;;;19.52;10.43;;;1.00;99.90;;;;;;5050762;28;20392;-74
2024/01/21 00:31:27;;;;;;;16.23;9.68;;;1.00;99.90;;;;;;5063610;28;20017;-75
2024/01/21 00:33:53;;;;;;;19.80;10.00;;;1.10;99.90;;;;;;5052493;28;20423;-75
2024/01/21 00:36:18;;;;;;;17.38;9.57;;;1.10;99.90;;;;;;5053309;28;20055;-75
2024/01/21 00:38:44;;;;;;;19.15;9.65;;;1.10;99.90;;;;;;5065442;28;20441;-75
2024/01/21 00:41:14;;;;;;;15.30;8.57;;;1.10;99.90;;;;;;5055292;28;20073;-75
2024/01/21 00:43:40;;;;;;;17.58;9.32;;;1.20;99.90;;;;;;5050616;28;20528;-75
2024/01/21 00:46:06;;;;;;;13.48;8.10;;;1.20;99.90;;;;;;5054879;28;20063;-75
2024/01/21 00:48:31;;;;;;;15.25;8.55;;;1.20;99.90;;;;;;5054641;28;20024;-75
2024/01/21 00:50:57;;;;;;;17.63;8.68;;;1.20;99.90;;;;;;5065944;28;20031;-75
2024/01/21 00:53:23;;;;;;;12.93;8.18;;;1.20;99.90;;;;;;5064189;28;20035;-75
2024/01/21 00:55:48;;;;;;;14.77;8.45;;;1.20;99.90;;;;;;5054326;28;20056;-75
2024/01/21 00:58:14;;;;;;;15.43;8.27;;;1.20;99.90;;;;;;5052202;28;20553;-75
2024/01/21 01:00:39;;;;;;;16.00;8.02;;;1.20;99.90;;;;;;5049908;28;20507;-75
2024/01/21 01:03:05;;;;;;;16.10;7.72;;;1.20;99.90;;;;;;5060376;28;20055;-75
2024/01/21 01:05:31;;;;;;;11.88;7.13;;;1.20;99.90;;;;;;5053374;28;20086;-75
2024/01/21 01:07:56;;;;;;;16.33;7.95;;;1.20;99.90;;;;;;5053863;28;20020;-76
2024/01/21 01:10:22;;;;;;;15.00;7.88;;;1.20;99.90;;;;;;5062006;28;20025;-75
2024/01/21 01:12:47;;;;;;;14.00;7.57;;;1.20;99.90;;;;;;5050618;28;20075;-76
2024/01/21 01:15:13;;;;;;;16.77;7.68;;;1.30;99.90;;;;;;5049757;28;20017;-76
2024/01/21 01:17:39;;;;;;;11.93;7.45;;;1.30;99.90;;;;;;5048848;28;20128;-76
2024/01/21 01:20:05;;;;;;;15.95;7.63;;;1.30;99.90;;;;;;5051381;28;20028;-75
2024/01/21 01:22:31;;;;;;;12.48;7.63;;;1.20;99.90;;;;;;5048535;28;20021;-75
2024/01/21 01:24:57;;;;;;;13.73;7.53;;;1.20;99.90;;;;;;5060038;28;20501;-75
2024/01/21 01:27:24;;;;;;;15.02;7.65;;;1.20;99.90;;;;;;5054281;28;20028;-75
2024/01/21 01:29:50;;;;;;;12.98;7.53;;;1.20;99.90;;;;;;5052484;28;20067;-76
2024/01/21 01:32:16;;;;;;;17.23;8.00;;;1.20;99.90;;;;;;5063252;28;20021;-76
2024/01/21 01:34:41;;;;;;;13.25;7.18;;;1.20;99.90;;;;;;5058077;28;20028;-76
2024/01/21 01:37:09;;;;;;;12.73;7.65;;;1.20;99.90;;;;;;5059251;28;20021;-75
2024/01/21 01:39:35;;;;;;;14.55;7.45;;;1.10;99.90;;;;;;5056447;28;20039;-75
2024/01/21 01:42:00;;;;;;;12.25;6.53;;;1.20;99.90;;;;;;5056097;28;20017;-75
2024/01/21 01:44:26;;;;;;;12.27;6.85;;;1.20;99.90;;;;;;5050180;28;20027;-76
2024/01/21 01:46:52;;;;;;;12.00;6.47;;;1.10;99.90;;;;;;5050351;28;20078;-75
2024/01/21 01:49:19;;;;;;;13.32;6.97;;;1.10;99.90;;;;;;5050231;28;20025;-75
2024/01/21 01:51:45;;;;;;;15.38;7.38;;;1.10;99.90;;;;;;5050981;28;20017;-76
2024/01/21 01:54:11;;;;;;;12.95;6.68;;;1.10;99.90;;;;;;5049879;28;20143;-76
2024/01/21 01:56:38;;;;;;;14.35;7.05;;;1.10;99.90;;;;;;5062022;28;20133;-76
2024/01/21 01:59:09;;;;;;;12.38;6.95;;;1.10;99.90;;;;;;5070182;28;20086;-76
2024/01/21 02:01:36;;;;;;;13.05;7.30;;;1.00;99.90;;;;;;5053228;28;20512;-75
2024/01/21 02:04:03;;;;;;;11.10;6.55;;;1.10;99.90;;;;;;5053826;28;20078;-76
2024/01/21 02:06:28;;;;;;;11.57;6.70;;;1.10;99.90;;;;;;5066245;28;20021;-76
2024/01/21 02:08:54;;;;;;;13.65;6.88;;;1.10;99.90;;;;;;5058205;28;20021;-75
2024/01/21 02:11:19;;;;;;;14.45;6.70;;;1.10;99.90;;;;;;5065896;28;20028;-76
2024/01/21 02:13:45;;;;;;;14.32;7.18;;;1.10;99.90;;;;;;5054375;28;20025;-75
2024/01/21 02:16:11;;;;;;;11.27;6.53;;;1.00;99.90;;;;;;5052810;28;20507;-76
2024/01/21 02:18:37;;;;;;;12.00;6.85;;;1.00;99.90;;;;;;5057827;28;20268;-76
2024/01/21 02:21:03;;;;;;;13.90;6.75;;;1.00;99.90;;;;;;5057960;28;20029;-76
2024/01/21 02:23:29;;;;;;;12.20;6.40;;;1.00;99.90;;;;;;5056469;28;20013;-76
2024/01/21 02:25:56;;;;;;;10.73;6.00;;;1.00;99.90;;;;;;5061040;28;20024;-75
2024/01/21 02:28:21;;;;;;;12.40;6.28;;;1.00;99.90;;;;;;5060302;28;20021;-75
2024/01/21 02:30:47;;;;;;;12.20;6.50;;;1.00;99.90;;;;;;5070453;28;20103;-75
2024/01/21 02:33:13;;;;;;;12.77;6.47;;;1.00;99.90;;;;;;5065728;28;20520;-75
2024/01/21 02:35:39;;;;;;;12.35;6.72;;;1.00;99.90;;;;;;5053155;28;20147;-75
2024/01/21 02:38:04;;;;;;;11.98;6.80;;;1.00;99.90;;;;;;5054347;28;20024;-75
2024/01/21 02:40:31;;;;;;;11.10;6.22;;;1.00;99.90;;;;;;5062804;28;20383;-75
2024/01/21 02:42:56;;;;;;;10.80;6.88;;;1.00;99.90;;;;;;5055211;28;20491;-75
2024/01/21 02:45:22;;;;;;;12.48;6.85;;;1.00;99.90;;;;;;5054675;28;20044;-75
2024/01/21 02:47:47;;;;;;;11.32;6.45;;;1.00;99.90;;;;;;5052597;28;20029;-75
2024/01/21 02:50:13;;;;;;;11.77;6.38;;;1.00;99.90;;;;;;5055809;28;20401;-75
2024/01/21 02:52:38;;;;;;;10.68;6.10;;;1.00;99.90;;;;;;5062771;28;20033;-75
2024/01/21 02:55:04;;;;;;;11.70;5.95;;;1.00;99.90;;;;;;5067212;28;20016;-75
2024/01/21 02:57:30;;;;;;;14.98;6.78;;;1.00;99.90;;;;;;5063867;28;20102;-75
2024/01/21 02:59:56;;;;;;;11.88;6.40;;;1.00;99.90;;;;;;5059138;28;20017;-75
2024/01/21 03:02:22;;;;;;;11.45;6.10;;;1.00;99.90;;;;;;5066378;28;20035;-75
2024/01/21 03:04:47;;;;;;;10.68;5.70;;;1.00;99.90;;;;;;5052721;28;20026;-75
2024/01/21 03:07:13;;;;;;;11.23;6.13;;;1.00;99.90;;;;;;5052443;28;20491;-75
2024/01/21 03:09:39;;;;;;;13.48;6.07;;;1.00;99.90;;;;;;5054888;28;20048;-75
2024/01/21 03:12:05;;;;;;;12.43;5.88;;;1.10;99.90;;;;;;5052083;28;20450;-75
2024/01/21 03:14:30;;;;;;;12.75;6.50;;;1.10;99.90;;;;;;5052641;28;20032;-75
2024/01/21 03:16:56;;;;;;;12.30;6.30;;;1.10;99.90;;;;;;5052339;28;20021;-75
2024/01/21 03:19:22;;;;;;;12.65;5.78;;;1.10;99.90;;;;;;5052991;28;20234;-75
2024/01/21 03:21:48;;;;;;;14.70;6.43;;;1.10;99.90;;;;;;5056077;28;20017;-75
2024/01/21 03:24:13;;;;;;;12.38;6.35;;;1.10;99.90;;;;;;5051118;28;20045;-75
2024/01/21 03:26:39;;;;;;;12.07;6.07;;;1.10;99.90;;;;;;5054892;28;20025;-75
2024/01/21 03:29:05;;;;;;;12.52;6.25;;;1.10;99.90;;;;;;5059164;28;20112;-75
2024/01/21 03:31:30;;;;;;;12.30;6.13;;;1.20;99.90;;;;;;5059349;28;20017;-75
2024/01/21 03:33:56;;;;;;;13.70;6.40;;;1.20;99.90;;;;;;5068811;28;20017;-75
2024/01/21 03:36:21;;;;;;;10.63;6.00;;;1.20;99.90;;;;;;5062316;28;20035;-75
2024/01/21 03:38:50;;;;;;;11.88;5.65;;;1.20;99.90;;;;;;5060613;28;20021;-75
2024/01/21 03:41:17;;;;;;;12.45;6.82;;;1.30;99.90;;;;;;5054175;28;20021;-75
2024/01/21 03:43:42;;;;;;;12.45;6.07;;;1.30;99.90;;;;;;5059183;28;20103;-75
2024/01/21 03:46:08;;;;;;;12.93;6.45;;;1.30;99.90;;;;;;5069257;28;20104;-75
2024/01/21 03:48:33;;;;;;;12.27;6.78;;;1.40;99.90;;;;;;5054006;28;20067;-75
2024/01/21 03:51:00;;;;;;;13.18;6.30;;;1.40;99.90;;;;;;5052302;28;20017;-75
2024/01/21 03:53:26;;;;;;;12.48;6.30;;;1.40;99.90;;;;;;5051793;28;20064;-75
2024/01/21 03:55:51;;;;;;;11.07;6.10;;;1.40;99.90;;;;;;5058163;28;20044;-75
2024/01/21 03:58:17;;;;;;;12.57;6.45;;;1.40;99.90;;;;;;5058653;28;20020;-75
2024/01/21 04:00:42;;;;;;;11.80;6.20;;;1.40;99.90;;;;;;5058734;28;20025;-75
2024/01/21 04:03:08;;;;;;;12.70;6.32;;;1.40;99.90;;;;;;5052085;28;20151;-75
2024/01/21 04:05:33;;;;;;;12.50;6.35;;;1.40;99.90;;;;;;5057057;28;20029;-75
2024/01/21 04:07:59;;;;;;;11.10;6.25;;;1.50;99.90;;;;;;5067118;28;20013;-75
2024/01/21 04:10:25;;;;;;;13.48;6.63;;;1.50;99.90;;;;;;5061866;28;20013;-75
2024/01/21 04:12:51;;;;;;;12.38;6.45;;;1.60;99.90;;;;;;5058433;28;20033;-75
2024/01/21 04:15:16;;;;;;;13.23;6.65;;;1.70;99.90;;;;;;5064765;28;20023;-75
2024/01/21 04:17:42;;;;;;;11.13;6.55;;;1.70;99.90;;;;;;5051045;28;20053;-75
2024/01/21 04:20:09;;;;;;;13.02;6.07;;;1.80;99.90;;;;;;5065426;28;20024;-75
2024/01/21 04:22:35;;;;;;;12.10;6.28;;;1.80;99.90;;;;;;5070947;28;20031;-75
2024/01/21 04:25:01;;;;;;;12.43;6.68;;;1.90;99.90;;;;;;5056696;28;20476;-75
2024/01/21 04:27:27;;;;;;;13.05;6.88;;;2.00;99.90;;;;;;5054831;28;20017;-75
2024/01/21 04:29:52;;;;;;;11.90;6.20;;;2.00;99.90;;;;;;5053808;28;20025;-75
2024/01/21 04:32:18;;;;;;;12.93;6.60;;;2.00;99.90;;;;;;5055372;28;20029;-76
2024/01/21 04:34:44;;;;;;;16.35;6.55;;;2.10;99.90;;;;;;5052065;28;20036;-75
2024/01/21 04:37:10;;;;;;;13.43;6.88;;;2.10;99.90;;;;;;5053587;28;20078;-76
2024/01/21 04:39:35;;;;;;;13.18;6.63;;;2.10;99.90;;;;;;5061555;28;20021;-75
2024/01/21 04:42:01;;;;;;;14.55;7.22;;;2.20;99.90;;;;;;5057724;28;20030;-75
2024/01/21 04:44:26;;;;;;;12.45;6.38;;;2.20;99.90;;;;;;5067737;28;20016;-76
2024/01/21 04:46:52;;;;;;;13.52;6.78;;;2.20;99.90;;;;;;5051007;28;20053;-76
2024/01/21 04:49:18;;;;;;;13.63;6.82;;;2.20;99.90;;;;;;5053670;28;20020;-75
2024/01/21 04:51:44;;;;;;;12.32;6.82;;;2.20;99.90;;;;;;5050129;28;20468;-75
2024/01/21 04:54:09;;;;;;;13.23;6.72;;;2.20;99.90;;;;;;5062119;28;20028;-75
2024/01/21 04:56:36;;;;;;;14.18;7.38;;;2.20;99.90;;;;;;5055853;28;20027;-75
2024/01/21 04:59:02;;;;;;;14.15;7.47;;;2.20;99.90;;;;;;5057916;28;20017;-76
2024/01/21 05:01:28;;;;;;;13.20;6.90;;;2.20;99.90;;;;;;5056577;28;20028;-76
2024/01/21 05:03:53;;;;;;;12.68;6.45;;;2.10;99.90;;;;;;5057528;28;20029;-76
2024/01/21 05:06:19;;;;;;;12.80;6.78;;;2.20;99.90;;;;;;5056214;28;20138;-76
2024/01/21 05:08:44;;;;;;;10.93;6.47;;;2.10;99.90;;;;;;5055936;28;20020;-76
2024/01/21 05:11:13;;;;;;;14.82;7.55;;;2.10;99.90;;;;;;5066098;28;20395;-75
2024/01/21 05:13:38;;;;;;;13.70;7.15;;;2.10;99.90;;;;;;5051489;28;20040;-75
2024/01/21 05:16:04;;;;;;;13.02;7.10;;;2.10;99.90;;;;;;5051040;28;20025;-75
2024/01/21 05:18:30;;;;;;;12.48;6.80;;;2.10;99.90;;;;;;5048179;28;20514;-75
2024/01/21 05:20:55;;;;;;;15.30;7.15;;;2.10;99.90;;;;;;5063159;28;20424;-75
2024/01/21 05:23:21;;;;;;;11.50;6.82;;;2.10;99.90;;;;;;5055826;28;20531;-75
2024/01/21 05:25:50;;;;;;;15.20;7.45;;;2.10;99.90;;;;;;5058378;28;20058;-75
2024/01/21 05:28:16;;;;;;;13.07;6.70;;;2.10;99.90;;;;;;5055906;28;20012;-75
2024/01/21 05:30:41;;;;;;;14.02;7.00;;;2.00;99.90;;;;;;5057626;28;20033;-75
2024/01/21 05:33:07;;;;;;;13.13;7.05;;;2.00;99.90;;;;;;5061976;28;20365;-75
2024/01/21 05:35:32;;;;;;;12.77;7.35;;;2.00;99.90;;;;;;5054673;28;20028;-75
2024/01/21 05:37:58;;;;;;;13.73;6.68;;;2.00;99.90;;;;;;5053879;28;20024;-75
2024/01/21 05:40:25;;;;;;;11.85;7.00;;;2.00;99.90;;;;;;5069169;28;20384;-75
2024/01/21 05:42:51;;;;;;;13.13;7.00;;;2.00;99.90;;;;;;5067838;28;20068;-75
2024/01/21 05:45:16;;;;;;;13.85;7.43;;;2.00;99.90;;;;;;5069905;28;20052;-75
2024/01/21 05:47:42;;;;;;;13.38;6.95;;;2.00;99.90;;;;;;5064431;28;20017;-75
2024/01/21 05:50:08;;;;;;;17.00;8.00;;;2.00;99.90;;;;;;5052492;28;20040;-75
2024/01/21 05:52:35;;;;;;;12.02;7.15;;;2.00;99.90;;;;;;5054693;28;20044;-75
2024/01/21 05:55:00;;;;;;;15.13;7.07;;;2.10;99.90;;;;;;5062586;28;20032;-75
2024/01/21 05:57:26;;;;;;;13.50;7.18;;;2.00;99.90;;;;;;5055451;28;20028;-75
2024/01/21 05:59:52;;;;;;;12.50;7.05;;;2.00;99.90;;;;;;5049537;28;20108;-75
2024/01/21 06:02:18;;;;;;;11.98;7.00;;;2.10;99.90;;;;;;5058494;28;20085;-74
2024/01/21 06:04:43;;;;;;;12.88;7.13;;;2.10;99.90;;;;;;5066456;28;20024;-75
2024/01/21 06:07:09;;;;;;;12.68;6.50;;;2.10;99.90;;;;;;5068229;28;20025;-75
2024/01/21 06:09:35;;;;;;;11.95;6.72;;;2.10;99.90;;;;;;5052602;28;20392;-75
2024/01/21 06:12:00;;;;;;;12.60;7.10;;;2.10;99.90;;;;;;5049869;28;20028;-75
2024/01/21 06:14:26;;;;;;;14.13;7.50;;;2.10;99.90;;;;;;5060790;28;20017;-75
2024/01/21 06:16:54;;;;;;;14.77;7.85;;;2.10;99.90;;;;;;5062435;28;20101;-75
2024/01/21 06:19:20;;;;;;;13.52;7.80;;;2.20;99.90;;;;;;5062728;28;20079;-75
2024/01/21 06:21:45;;;;;;;13.27;6.97;;;2.20;99.90;;;;;;5066942;28;20025;-75
2024/01/21 06:24:12;;;;;;;13.60;7.53;;;2.20;99.90;;;;;;5066002;28;20028;-75
2024/01/21 06:26:38;;;;;;;14.13;7.45;;;2.20;99.90;;;;;;5067599;28;20023;-75
2024/01/21 06:29:04;;;;;;;13.68;7.32;;;2.20;99.90;;;;;;5058683;28;20032;-75
2024/01/21 06:31:30;;;;;;;14.00;7.25;;;2.20;99.90;;;;;;5056589;28;20036;-75
2024/01/21 06:33:55;;;;;;;12.05;7.00;;;2.20;99.90;;;;;;5058835;28;20074;-76
2024/01/21 06:36:24;;;;;;;12.98;7.75;;;2.20;99.90;;;;;;5054809;28;20423;-76
2024/01/21 06:38:50;;;;;;;14.02;7.75;;;2.20;99.90;;;;;;5048428;28;20029;-75
2024/01/21 06:41:15;;;;;;;14.43;7.63;;;2.20;99.90;;;;;;5050853;28;20028;-75
2024/01/21 06:43:41;;;;;;;16.10;7.75;;;2.10;99.90;;;;;;5059881;28;20025;-75
2024/01/21 06:46:08;;;;;;;14.27;7.85;;;2.10;99.90;;;;;;5071645;28;20030;-75
2024/01/21 06:48:34;;;;;;;13.57;7.50;;;2.10;99.90;;;;;;5070268;28;20070;-76
2024/01/21 06:51:04;;;;;;;13.52;7.45;;;2.10;99.90;;;;;;5071099;28;20020;-76
2024/01/21 06:53:30;;;;;;;14.43;7.82;;;2.10;99.90;;;;;;5058366;28;20416;-75
2024/01/21 06:55:55;;;;;;;14.88;7.85;;;2.10;99.90;;;;;;5055857;28;20028;-76
2024/01/21 06:58:21;;;;;;;12.60;7.43;;;2.10;99.90;;;;;;5051809;28;20388;-76
2024/01/21 07:00:51;;;;;;;15.20;8.20;;;2.00;99.90;;;;;;5050497;28;20028;-76
2024/01/21 07:03:18;;;;;;;13.68;7.57;;;2.00;99.90;;;;;;5053327;28;20138;-76
2024/01/21 07:05:43;;;;;;;16.13;8.35;;;2.00;99.90;;;;;;5055589;28;20028;-76
2024/01/21 07:08:09;;;;;;;13.45;7.35;;;2.00;99.90;;;;;;5057046;28;20029;-76
2024/01/21 07:10:34;;;;;;;13.57;8.05;;;2.00;99.90;;;;;;5060391;28;20025;-75
2024/01/21 07:13:00;;;;;;;16.65;8.05;;;2.00;99.90;;;;;;5059966;28;20021;-74
2024/01/21 07:15:25;;;;;;;14.20;7.15;;;2.00;99.90;;;;;;5062264;28;20399;-76
2024/01/21 07:17:51;;;;;;;12.77;7.65;;;2.00;99.90;;;;;;5056681;28;20496;-75
2024/01/21 07:20:16;;;;;;;14.25;7.93;;;2.00;99.90;;;;;;5055680;28;20032;-75
2024/01/21 07:22:42;;;;;;;15.10;7.70;;;2.10;99.90;;;;;;5054984;28;20025;-75
2024/01/21 07:25:08;;;;;;;15.25;7.32;;;2.10;99.90;;;;;;5054216;28;20049;-75
2024/01/21 07:27:34;;;;;;;12.48;7.72;;;2.10;99.90;;;;;;5059496;28;20162;-76
2024/01/21 07:30:00;;;;;;;14.73;8.73;;;2.10;99.90;;;;;;5070301;28;20103;-76
2024/01/21 07:32:25;;;;;;;16.83;8.30;;;2.10;99.90;;;;;;5071144;28;20166;-75
2024/01/21 07:34:51;;;;;;;15.63;7.65;;;2.20;99.90;;;;;;5061887;28;20025;-75
2024/01/21 07:37:16;;;;;;;14.13;7.65;;;2.20;99.90;;;;;;5055629;28;20074;-76
2024/01/21 07:39:42;;;;;;;14.75;7.95;;;2.30;99.90;;;;;;5063827;28;20103;-76
2024/01/21 07:42:08;;;;;;;13.82;8.07;;;2.30;99.90;;;;;;5051568;28;20021;-76
2024/01/21 07:44:33;;;;;;;14.65;8.18;;;2.30;99.90;;;;;;5051315;28;20391;-76
2024/01/21 07:46:59;;;;;;;14.90;8.30;;;2.40;99.90;;;;;;5065544;28;20031;-76
2024/01/21 07:49:25;;;;;;;13.95;8.38;;;2.40;99.90;;;;;;5058471;28;20028;-76
2024/01/21 07:51:50;;;;;;;14.73;8.13;;;2.40;99.90;;;;;;5063978;28;20021;-76
2024/01/21 07:54:16;;;;;;;13.82;8.13;;;2.40;99.90;;;;;;5055878;28;20021;-76
2024/01/21 07:56:42;;;;;;;14.63;7.57;;;2.40;99.90;;;;;;5060274;28;20519;-76
2024/01/21 07:59:07;;;;;;;16.73;8.27;;;2.40;99.90;;;;;;5058015;28;20008;-76
2024/01/21 08:01:33;;;;;;;14.13;7.97;;;2.50;99.90;;;;;;5062863;28;20082;-76
2024/01/21 08:03:58;;;;;;;15.65;8.00;;;2.50;99.90;;;;;;5067584;28;20025;-76
2024/01/21 08:06:24;;;;;;;20.73;9.05;;;2.50;99.90;;;;;;5060761;28;20541;-76
2024/01/21 08:08:50;;;;;;;15.45;8.05;;;2.50;99.90;;;;;;5067927;28;20029;-76
2024/01/21 08:11:16;;;;;;;14.82;8.00;;;2.60;99.90;;;;;;5065583;28;20479;-76
2024/01/21 08:13:41;;;;;;;15.80;7.95;;;2.60;99.90;;;;;;5056343;28;20025;-76
2024/01/21 08:16:07;;;;;;;16.50;8.77;;;2.60;99.90;;;;;;5056799;28;20376;-76
2024/01/21 08:18:34;;;;;;;15.40;8.63;;;2.70;99.90;;;;;;5060156;28;20060;-76
2024/01/21 08:21:00;;;;;;;17.90;8.57;;;2.70;99.90;;;;;;5069236;28;20586;-76
2024/01/21 08:23:25;;;;;;;14.20;8.38;;;2.70;99.90;;;;;;5054883;28;20029;-76
2024/01/21 08:25:51;;;;;;;15.02;7.85;;;2.80;99.90;;;;;;5061584;28;20402;-74
2024/01/21 08:28:17;;;;;;;16.48;8.52;;;2.80;99.90;;;;;;5070246;28;20078;-74
2024/01/21 08:30:42;;;;;;;23.25;9.40;;;2.90;99.90;;;;;;5055646;28;20021;-73
2024/01/21 08:33:09;;;;;;;14.23;8.35;;;2.90;99.90;;;;;;5051751;28;20074;-74
2024/01/21 08:35:36;;;;;;;17.73;8.40;;;3.00;99.90;;;;;;5069322;28;20025;-73
2024/01/21 08:38:02;;;;;;;15.52;8.50;;;3.00;99.90;;;;;;5052705;28;20491;-73
2024/01/21 08:40:27;;;;;;;15.32;9.13;;;3.00;99.90;;;;;;5052217;28;20017;-73
2024/01/21 08:42:53;;;;;;;17.30;9.13;;;3.10;99.90;;;;;;5055476;28;20480;-74
2024/01/21 08:45:18;;;;;;;16.77;8.77;;;3.10;99.90;;;;;;5052821;28;20025;-74
2024/01/21 08:47:44;;;;;;;17.77;8.77;;;3.10;99.90;;;;;;5056537;28;20028;-73
2024/01/21 08:50:10;;;;;;;14.95;8.70;;;3.10;99.90;;;;;;5062376;28;20059;-73
2024/01/21 08:52:36;;;;;;;16.35;9.02;;;3.20;99.90;;;;;;5063420;28;20487;-74
2024/01/21 08:55:01;;;;;;;15.20;8.73;;;3.20;99.90;;;;;;5049978;28;20020;-74
2024/01/21 08:57:27;;;;;;;18.45;9.23;;;3.20;99.90;;;;;;5059661;28;20021;-74
2024/01/21 08:59:53;;;;;;;14.88;8.70;;;3.30;99.90;;;;;;5053427;28;20095;-74
2024/01/21 09:02:18;;;;;;;16.23;8.93;;;3.30;99.90;;;;;;5058562;28;20020;-74
2024/01/21 09:04:45;;;;;;;15.30;9.45;;;3.30;99.90;;;;;;5060070;28;20025;-74
2024/01/21 09:07:11;;;;;;;17.13;8.85;;;3.30;99.90;;;;;;5052544;28;20074;-74
2024/01/21 09:09:36;;;;;;;16.42;9.00;;;3.40;99.90;;;;;;5055588;28;20029;-74
2024/01/21 09:12:02;;;;;;;18.45;9.48;;;3.40;99.90;;;;;;5060475;28;20031;-74
2024/01/21 09:14:28;;;;;;;18.63;9.40;;;3.40;99.90;;;;;;5062106;28;20078;-75
2024/01/21 09:16:53;;;;;;;15.85;9.25;;;3.40;99.90;;;;;;5057547;28;20024;-75
2024/01/21 09:19:19;;;;;;;17.77;9.80;;;3.40;99.90;;;;;;5063024;28;20049;-75
2024/01/21 09:21:45;;;;;;;20.08;10.43;;;3.50;99.90;;;;;;5062766;28;20096;-74
2024/01/21 09:24:11;;;;;;;19.25;9.13;;;3.50;99.90;;;;;;5061193;28;20028;-74
2024/01/21 09:26:37;;;;;;;18.30;9.57;;;3.50;99.90;;;;;;5063543;28;20041;-76
2024/01/21 09:29:03;;;;;;;17.88;9.18;;;3.50;99.90;;;;;;5055957;28;20361;-74
2024/01/21 09:31:31;;;;;;;17.40;9.50;;;3.60;99.90;;;;;;5063348;28;20021;-74
2024/01/21 09:33:56;;;;;;;15.15;9.55;;;3.60;99.90;;;;;;5060251;28;20064;-75
2024/01/21 09:36:23;;;;;;;17.92;9.90;;;3.60;99.90;;;;;;5050419;28;20073;-75
2024/01/21 09:38:50;;;;;;;17.48;9.77;;;3.60;99.90;;;;;;5049822;28;20138;-75
2024/01/21 09:41:40;;;;;;;22.10;10.45;;;3.60;99.90;;;;;;5069443;28;20406;-74
2024/01/21 09:44:06;;;;;;;20.05;10.05;;;3.70;99.90;;;;;;5064100;28;20112;-75
2024/01/21 09:46:32;;;;;;;21.17;10.02;;;3.70;99.90;;;;;;5053508;28;20113;-74
2024/01/21 09:49:01;;;;;;;17.73;9.95;;;3.70;99.90;;;;;;5059635;28;20044;-74
2024/01/21 09:51:29;;;;;;;18.00;9.90;;;3.80;99.90;;;;;;5066186;28;20385;-74
2024/01/21 09:53:55;;;;;;;19.08;9.75;;;3.80;99.90;;;;;;5059724;28;20024;-74
2024/01/21 09:56:22;;;;;;;19.05;10.32;;;3.80;99.90;;;;;;5053713;28;20013;-74
2024/01/21 09:58:52;;;;;;;17.05;9.75;;;3.80;99.90;;;;;;5054997;28;20012;-74
2024/01/21 10:01:18;;;;;;;19.58;10.32;;;3.90;99.90;;;;;;5061851;28;20052;-75
2024/01/21 10:03:46;;;;;;;17.65;9.95;;;3.90;99.90;;;;;;5048489;28;20025;-75
2024/01/21 10:06:11;;;;;;;18.90;10.18;;;3.90;99.90;;;;;;5056434;28;20506;-74
2024/01/21 10:08:42;;;;;;;17.55;10.20;;;4.00;99.90;;;;;;5065586;28;20024;-74
2024/01/21 10:11:08;;;;;;;18.00;9.95;;;4.00;99.90;;;;;;5052079;28;20054;-75
2024/01/21 10:13:38;;;;;;;15.95;9.85;;;4.00;99.90;;;;;;5064203;28;20035;-74
2024/01/21 10:16:04;;;;;;;18.38;9.48;;;4.00;99.90;;;;;;5053431;28;20047;-74
2024/01/21 10:18:30;;;;;;;20.17;10.95;;;4.10;99.90;;;;;;5051428;28;20381;-74
2024/01/21 10:20:59;;;;;;;17.80;9.73;;;4.20;99.90;;;;;;5057512;28;20036;-75
2024/01/21 10:23:24;;;;;;;18.23;10.32;;;4.20;99.90;;;;;;5057937;28;20375;-74
2024/01/21 10:25:50;;;;;;;17.55;9.68;;;4.30;99.90;;;;;;5062273;28;20021;-74
2024/01/21 10:28:17;;;;;;;19.00;9.73;;;4.30;99.90;;;;;;5063441;28;20500;-74
2024/01/21 10:30:44;;;;;;;15.95;9.48;;;4.30;99.90;;;;;;5053684;28;20021;-74
2024/01/21 10:33:10;;;;;;;18.38;9.48;;;4.40;99.90;;;;;;5054679;28;20029;-74
2024/01/21 10:35:36;;;;;;;18.15;10.27;;;4.40;99.90;;;;;;5068025;28;20375;-74
2024/01/21 10:38:05;;;;;;;21.23;10.20;;;4.50;99.90;;;;;;5059677;28;20033;-75
2024/01/21 10:40:31;;;;;;;19.13;9.57;;;4.50;99.90;;;;;;5053309;28;20027;-74
2024/01/21 10:42:59;;;;;;;18.80;9.25;;;4.50;99.90;;;;;;5068060;28;20074;-74
2024/01/21 10:45:26;;;;;;;17.45;9.88;;;4.60;99.90;;;;;;5062185;28;20104;-74
2024/01/21 10:47:53;;;;;;;15.98;9.75;;;4.60;99.90;;;;;;5064366;28;20220;-75
2024/01/21 10:50:22;;;;;;;16.77;9.63;;;4.60;99.90;;;;;;5065962;28;20021;-75
2024/01/21 10:52:49;;;;;;;15.65;9.05;;;4.60;99.90;;;;;;5057418;28;20458;-75
2024/01/21 10:55:15;;;;;;;18.90;9.38;;;4.60;99.90;;;;;;5062731;28;20099;-75
2024/01/21 10:57:42;;;;;;;17.63;9.27;;;4.60;99.90;;;;;;5057126;28;20025;-74
2024/01/21 11:00:09;;;;;;;14.98;8.63;;;4.60;99.90;;;;;;5052382;28;20434;-74
2024/01/21 11:02:35;;;;;;;17.90;9.27;;;4.70;99.90;;;;;;5060413;28;20086;-75
2024/01/21 11:05:00;;;;;;;17.23;9.35;;;4.60;99.90;;;;;;5056259;28;20468;-74
2024/01/21 11:07:26;;;;;;;16.13;9.02;;;4.60;99.90;;;;;;5058672;28;20056;-75
2024/01/21 11:09:54;;;;;;;16.73;9.15;;;4.60;99.90;;;;;;5064052;28;20020;-74
2024/01/21 11:12:19;;;;;;;18.80;9.02;;;4.60;99.90;;;;;;5065478;28;20016;-74
2024/01/21 11:14:46;;;;;;;19.98;9.60;;;4.60;99.90;;;;;;5068639;28;20020;-75
2024/01/21 11:17:15;;;;;;;17.60;9.93;;;4.60;99.90;;;;;;5063757;28;20109;-75
2024/01/21 11:19:47;;;;;;;22.45;9.45;;;4.50;99.90;;;;;;5055067;28;20032;-75
2024/01/21 11:22:14;;;;;;;20.42;9.95;;;4.50;99.90;;;;;;5059128;28;20029;-75
2024/01/21 11:24:43;;;;;;;16.88;9.73;;;4.50;99.90;;;;;;5067360;28;20067;-75
2024/01/21 11:27:35;;;;;;;16.65;9.35;;;4.50;99.90;;;;;;5056410;28;20021;-74
2024/01/21 11:30:01;;;;;;;18.13;9.75;;;4.50;99.90;;;;;;5063185;28;20033;-74
2024/01/21 11:32:29;;;;;;;18.13;9.60;;;4.50;99.90;;;;;;5056130;28;20102;-74
2024/01/21 11:34:55;;;;;;;18.27;9.45;;;4.60;99.90;;;;;;5051892;28;20052;-75
2024/01/21 11:37:22;;;;;;;15.88;9.40;;;4.60;99.90;;;;;;5053951;28;20112;-75
2024/01/21 11:39:49;;;;;;;17.23;8.90;;;4.60;99.90;;;;;;5052754;28;20032;-74
2024/01/21 11:42:15;;;;;;;18.90;10.00;;;4.70;99.90;;;;;;5051929;28;20357;-75
2024/01/21 11:44:40;;;;;;;16.52;8.88;;;4.70;99.90;;;;;;5051250;28;20044;-74
2024/01/21 11:47:07;;;;;;;16.90;9.30;;;4.80;99.90;;;;;;5062810;28;20021;-75
2024/01/21 11:49:34;;;;;;;16.90;9.25;;;4.80;99.90;;;;;;5053120;28;20026;-74
2024/01/21 11:52:05;;;;;;;16.63;8.90;;;4.90;99.90;;;;;;5056409;28;20033;-74
2024/01/21 11:54:36;;;;;;;15.05;8.55;;;4.90;99.90;;;;;;5050790;28;20029;-74
2024/01/21 11:57:02;;;;;;;19.33;9.30;;;5.00;99.90;;;;;;5058088;28;20471;-74
2024/01/21 11:59:29;;;;;;;16.02;8.82;;;5.00;99.90;;;;;;5058463;28;20036;-74
2024/01/21 12:01:58;;;;;;;19.17;8.80;;;5.10;99.90;;;;;;5048471;28;20009;-74
2024/01/21 12:04:25;;;;;;;16.65;9.38;;;5.10;99.90;;;;;;5062398;28;20430;-74
2024/01/21 12:06:52;;;;;;;16.58;8.00;;;5.20;99.90;;;;;;5067945;28;20034;-74
2024/01/21 12:09:18;;;;;;;19.00;8.60;;;5.20;99.90;;;;;;5061835;28;20380;-74
2024/01/21 12:11:47;;;;;;;16.05;8.55;;;5.30;99.90;;;;;;5050925;28;20029;-73
2024/01/21 12:14:13;;;;;;;18.08;9.10;;;5.30;99.90;;;;;;5052876;28;20017;-73
2024/01/21 12:16:40;;;;;;;18.48;8.27;;;5.40;99.90;;;;;;5064065;28;20202;-73
2024/01/21 12:19:06;;;;;;;19.05;8.15;;;5.40;99.90;;;;;;5064695;28;20084;-73
2024/01/21 12:21:32;;;;;;;15.00;8.35;;;5.40;99.90;;;;;;5054805;28;20078;-73
2024/01/21 12:23:59;;;;;;;16.70;8.43;;;5.40;99.90;;;;;;5057925;28;20029;-73
2024/01/21 12:26:25;;;;;;;15.85;8.00;;;5.50;99.90;;;;;;5067550;28;20052;-74
2024/01/21 12:28:59;;;;;;;18.63;8.90;;;5.50;99.90;;;;;;5057609;28;20380;-73
2024/01/21 12:31:37;;;;;;;18.75;8.18;;;5.50;99.90;;;;;;5055340;28;20093;-74
2024/01/21 12:34:08;;;;;;;16.27;8.68;;;5.50;99.90;;;;;;5065373;28;20028;-73
2024/01/21 12:36:35;;;;;;;19.00;8.88;;;5.50;99.90;;;;;;5069181;28;20087;-74
2024/01/21 12:39:04;;;;;;;19.38;8.55;;;5.50;99.90;;;;;;5062687;28;20032;-73
2024/01/21 12:41:30;;;;;;;22.95;9.13;;;5.50;99.90;;;;;;5050348;28;20124;-74